sensor_id;sensor_type;location;lat;lon;timestamp;pressure;altitude;pressure_sealevel;temperature;humidity
82249;BME280;71851;49.092;18.918;2023-11-18T00:03:35;97194.84;;;4.23;71.19
82249;BME280;71851;49.092;18.918;2023-11-18T00:06:35;97186.59;;;4.10;70.50
82249;BME280;71851;49.092;18.918;2023-11-18T00:09:35;97194.72;;;4.24;71.02
82249;BME280;71851;49.092;18.918;2023-11-18T00:12:37;97195.78;;;4.31;71.03
82249;BME280;71851;49.092;18.918;2023-11-18T00:15:41;97205.75;;;4.36;70.24
82249;BME280;71851;49.092;18.918;2023-11-18T00:18:43;97206.75;;;4.53;70.98
82249;BME280;71851;49.092;18.918;2023-11-18T00:21:43;97211.03;;;4.44;69.88
82249;BME280;71851;49.092;18.918;2023-11-18T00:24:44;97214.56;;;4.53;70.02
82249;BME280;71851;49.092;18.918;2023-11-18T00:27:44;97213.00;;;4.60;69.73
82249;BME280;71851;49.092;18.918;2023-11-18T00:30:45;97218.34;;;4.58;69.33
82249;BME280;71851;49.092;18.918;2023-11-18T00:33:45;97220.03;;;4.50;69.17
82249;BME280;71851;49.092;18.918;2023-11-18T00:36:46;97211.41;;;4.49;69.69
82249;BME280;71851;49.092;18.918;2023-11-18T00:39:46;97223.81;;;4.55;69.79
82249;BME280;71851;49.092;18.918;2023-11-18T00:42:47;97216.75;;;4.48;69.57
82249;BME280;71851;49.092;18.918;2023-11-18T00:45:47;97229.06;;;4.46;70.08
82249;BME280;71851;49.092;18.918;2023-11-18T00:48:48;97235.25;;;4.35;69.66
82249;BME280;71851;49.092;18.918;2023-11-18T00:51:48;97223.50;;;4.41;69.66
82249;BME280;71851;49.092;18.918;2023-11-18T00:54:48;97230.56;;;4.48;70.18
82249;BME280;71851;49.092;18.918;2023-11-18T00:57:49;97227.81;;;4.50;70.51
82249;BME280;71851;49.092;18.918;2023-11-18T01:00:49;97233.41;;;4.55;69.57
82249;BME280;71851;49.092;18.918;2023-11-18T01:03:50;97230.41;;;4.50;69.89
82249;BME280;71851;49.092;18.918;2023-11-18T01:06:53;97235.47;;;4.51;70.08
82249;BME280;71851;49.092;18.918;2023-11-18T01:09:54;97234.50;;;4.52;70.13
82249;BME280;71851;49.092;18.918;2023-11-18T01:12:55;97230.56;;;4.48;70.45
82249;BME280;71851;49.092;18.918;2023-11-18T01:15:57;97236.91;;;4.36;70.70
82249;BME280;71851;49.092;18.918;2023-11-18T01:18:58;97231.19;;;4.32;71.20
82249;BME280;71851;49.092;18.918;2023-11-18T01:21:59;97228.19;;;4.27;71.95
82249;BME280;71851;49.092;18.918;2023-11-18T01:25:00;97226.38;;;4.38;71.13
82249;BME280;71851;49.092;18.918;2023-11-18T01:28:01;97216.31;;;4.52;71.08
82249;BME280;71851;49.092;18.918;2023-11-18T01:31:04;97214.66;;;4.61;71.13
82249;BME280;71851;49.092;18.918;2023-11-18T01:34:05;97228.50;;;4.52;70.64
82249;BME280;71851;49.092;18.918;2023-11-18T01:37:06;97225.47;;;4.56;70.33
82249;BME280;71851;49.092;18.918;2023-11-18T01:40:09;97231.03;;;4.61;69.98
82249;BME280;71851;49.092;18.918;2023-11-18T01:43:13;97220.59;;;4.71;70.54
82249;BME280;71851;49.092;18.918;2023-11-18T01:46:16;97231.09;;;4.52;69.64
82249;BME280;71851;49.092;18.918;2023-11-18T01:49:17;97225.75;;;4.53;70.04
82249;BME280;71851;49.092;18.918;2023-11-18T01:52:18;97227.16;;;4.48;70.11
82249;BME280;71851;49.092;18.918;2023-11-18T01:55:20;97226.16;;;4.58;70.22
82249;BME280;71851;49.092;18.918;2023-11-18T01:58:22;97219.50;;;4.46;70.20
82249;BME280;71851;49.092;18.918;2023-11-18T02:01:23;97225.28;;;4.40;69.89
82249;BME280;71851;49.092;18.918;2023-11-18T02:04:24;97217.63;;;4.39;69.71
82249;BME280;71851;49.092;18.918;2023-11-18T02:07:25;97229.47;;;4.51;69.00
82249;BME280;71851;49.092;18.918;2023-11-18T02:10:27;97218.53;;;4.47;68.83
82249;BME280;71851;49.092;18.918;2023-11-18T02:13:33;97218.97;;;4.43;69.98
82249;BME280;71851;49.092;18.918;2023-11-18T02:16:34;97224.28;;;4.51;68.71
82249;BME280;71851;49.092;18.918;2023-11-18T02:19:36;97228.91;;;4.57;69.01
82249;BME280;71851;49.092;18.918;2023-11-18T02:22:43;97233.44;;;4.45;69.45
82249;BME280;71851;49.092;18.918;2023-11-18T02:25:46;97233.84;;;4.50;68.96
82249;BME280;71851;49.092;18.918;2023-11-18T02:28:49;97226.72;;;4.52;69.30
82249;BME280;71851;49.092;18.918;2023-11-18T02:31:52;97232.34;;;4.20;69.36
82249;BME280;71851;49.092;18.918;2023-11-18T02:35:02;97227.91;;;4.30;69.50
82249;BME280;71851;49.092;18.918;2023-11-18T02:38:06;97234.94;;;4.20;70.97
82249;BME280;71851;49.092;18.918;2023-11-18T02:41:12;97236.06;;;4.08;71.09
82249;BME280;71851;49.092;18.918;2023-11-18T02:44:15;97241.72;;;3.94;71.24
82249;BME280;71851;49.092;18.918;2023-11-18T02:47:18;97244.72;;;3.90;72.15
82249;BME280;71851;49.092;18.918;2023-11-18T02:50:19;97240.97;;;4.11;71.66
82249;BME280;71851;49.092;18.918;2023-11-18T02:53:20;97239.59;;;4.07;71.38
82249;BME280;71851;49.092;18.918;2023-11-18T02:56:22;97242.63;;;4.03;71.40
82249;BME280;71851;49.092;18.918;2023-11-18T02:59:22;97257.78;;;4.07;72.02
82249;BME280;71851;49.092;18.918;2023-11-18T03:02:23;97247.03;;;3.93;72.74
82249;BME280;71851;49.092;18.918;2023-11-18T03:05:23;97258.66;;;3.89;73.23
82249;BME280;71851;49.092;18.918;2023-11-18T03:08:27;97267.00;;;3.73;73.07
82249;BME280;71851;49.092;18.918;2023-11-18T03:11:29;97265.66;;;3.79;73.06
82249;BME280;71851;49.092;18.918;2023-11-18T03:14:31;97266.72;;;3.86;73.12
82249;BME280;71851;49.092;18.918;2023-11-18T03:17:32;97279.69;;;3.86;72.94
82249;BME280;71851;49.092;18.918;2023-11-18T03:20:33;97274.06;;;4.00;73.30
82249;BME280;71851;49.092;18.918;2023-11-18T03:23:34;97281.06;;;3.90;73.57
82249;BME280;71851;49.092;18.918;2023-11-18T03:26:34;97274.34;;;3.97;73.08
82249;BME280;71851;49.092;18.918;2023-11-18T03:29:35;97278.19;;;4.02;73.55
82249;BME280;71851;49.092;18.918;2023-11-18T03:32:38;97282.81;;;3.89;72.33
82249;BME280;71851;49.092;18.918;2023-11-18T03:35:39;97279.94;;;4.02;71.76
82249;BME280;71851;49.092;18.918;2023-11-18T03:38:40;97293.34;;;3.97;71.70
82249;BME280;71851;49.092;18.918;2023-11-18T03:41:41;97280.09;;;4.00;71.04
82249;BME280;71851;49.092;18.918;2023-11-18T03:44:44;97274.75;;;4.02;70.85
82249;BME280;71851;49.092;18.918;2023-11-18T03:47:47;97281.72;;;4.01;71.49
82249;BME280;71851;49.092;18.918;2023-11-18T03:50:50;97290.88;;;3.96;69.74
82249;BME280;71851;49.092;18.918;2023-11-18T03:53:50;97290.16;;;4.13;70.06
82249;BME280;71851;49.092;18.918;2023-11-18T03:56:52;97289.47;;;4.11;70.61
82249;BME280;71851;49.092;18.918;2023-11-18T03:59:52;97294.81;;;4.09;71.04
82249;BME280;71851;49.092;18.918;2023-11-18T04:03:00;97303.81;;;4.15;72.21
82249;BME280;71851;49.092;18.918;2023-11-18T04:06:01;97304.28;;;3.91;73.36
82249;BME280;71851;49.092;18.918;2023-11-18T04:09:03;97301.94;;;4.07;74.62
82249;BME280;71851;49.092;18.918;2023-11-18T04:12:06;97303.31;;;4.02;73.83
82249;BME280;71851;49.092;18.918;2023-11-18T04:15:08;97307.25;;;4.06;73.28
82249;BME280;71851;49.092;18.918;2023-11-18T04:18:11;97304.13;;;3.93;73.77
82249;BME280;71851;49.092;18.918;2023-11-18T04:21:12;97313.00;;;4.09;74.39
82249;BME280;71851;49.092;18.918;2023-11-18T04:24:13;97307.53;;;4.03;73.28
82249;BME280;71851;49.092;18.918;2023-11-18T04:27:13;97302.75;;;4.08;73.71
82249;BME280;71851;49.092;18.918;2023-11-18T04:30:14;97314.94;;;3.98;73.58
82249;BME280;71851;49.092;18.918;2023-11-18T04:33:14;97313.28;;;3.97;73.51
82249;BME280;71851;49.092;18.918;2023-11-18T04:36:16;97307.72;;;3.82;73.56
82249;BME280;71851;49.092;18.918;2023-11-18T04:39:17;97312.38;;;3.79;73.26
82249;BME280;71851;49.092;18.918;2023-11-18T04:42:18;97304.72;;;3.68;74.22
82249;BME280;71851;49.092;18.918;2023-11-18T04:45:18;97318.25;;;3.62;74.08
82249;BME280;71851;49.092;18.918;2023-11-18T04:48:19;97317.41;;;3.61;74.39
82249;BME280;71851;49.092;18.918;2023-11-18T04:51:21;97319.34;;;3.69;74.63
82249;BME280;71851;49.092;18.918;2023-11-18T04:54:22;97307.59;;;3.74;74.68
82249;BME280;71851;49.092;18.918;2023-11-18T04:57:23;97312.47;;;3.87;74.29
82249;BME280;71851;49.092;18.918;2023-11-18T05:00:23;97305.50;;;3.97;73.84
82249;BME280;71851;49.092;18.918;2023-11-18T05:03:24;97305.50;;;3.97;73.98
82249;BME280;71851;49.092;18.918;2023-11-18T05:06:25;97311.81;;;3.94;73.18
82249;BME280;71851;49.092;18.918;2023-11-18T05:09:27;97308.94;;;3.88;73.99
82249;BME280;71851;49.092;18.918;2023-11-18T05:12:29;97312.47;;;3.96;73.73
82249;BME280;71851;49.092;18.918;2023-11-18T05:15:29;97322.88;;;3.96;74.42
82249;BME280;71851;49.092;18.918;2023-11-18T05:18:32;97314.41;;;3.94;74.46
82249;BME280;71851;49.092;18.918;2023-11-18T05:21:36;97317.41;;;3.80;73.77
82249;BME280;71851;49.092;18.918;2023-11-18T05:24:37;97320.94;;;3.98;75.02
82249;BME280;71851;49.092;18.918;2023-11-18T05:27:38;97318.88;;;4.02;74.74
82249;BME280;71851;49.092;18.918;2023-11-18T05:30:42;97326.00;;;4.00;73.76
82249;BME280;71851;49.092;18.918;2023-11-18T05:33:45;97315.03;;;4.15;74.05
82249;BME280;71851;49.092;18.918;2023-11-18T05:36:51;97319.94;;;4.09;74.09
82249;BME280;71851;49.092;18.918;2023-11-18T05:39:54;97326.00;;;4.00;73.55
82249;BME280;71851;49.092;18.918;2023-11-18T05:43:06;97323.38;;;4.09;74.34
82249;BME280;71851;49.092;18.918;2023-11-18T05:46:16;97334.75;;;3.80;74.01
82249;BME280;71851;49.092;18.918;2023-11-18T05:49:24;97335.28;;;3.93;75.46
82249;BME280;71851;49.092;18.918;2023-11-18T05:52:25;97326.41;;;3.86;74.46
82249;BME280;71851;49.092;18.918;2023-11-18T05:55:25;97331.03;;;4.01;74.95
82249;BME280;71851;49.092;18.918;2023-11-18T05:58:26;97334.88;;;3.97;74.38
82249;BME280;71851;49.092;18.918;2023-11-18T06:01:29;97335.03;;;3.96;74.32
82249;BME280;71851;49.092;18.918;2023-11-18T06:04:30;97337.09;;;3.92;75.11
82249;BME280;71851;49.092;18.918;2023-11-18T06:07:31;97339.53;;;3.84;74.53
82249;BME280;71851;49.092;18.918;2023-11-18T06:10:31;97346.13;;;3.79;74.95
82249;BME280;71851;49.092;18.918;2023-11-18T06:13:32;97348.16;;;3.94;75.18
82249;BME280;71851;49.092;18.918;2023-11-18T06:16:32;97341.16;;;4.04;74.39
82249;BME280;71851;49.092;18.918;2023-11-18T06:19:33;97347.56;;;4.10;74.36
82249;BME280;71851;49.092;18.918;2023-11-18T06:22:36;97350.97;;;4.01;75.12
82249;BME280;71851;49.092;18.918;2023-11-18T06:25:37;97359.59;;;4.11;75.06
82249;BME280;71851;49.092;18.918;2023-11-18T06:28:39;97365.47;;;4.03;74.81
82249;BME280;71851;49.092;18.918;2023-11-18T06:31:40;97362.06;;;4.12;74.95
82249;BME280;71851;49.092;18.918;2023-11-18T06:34:40;97358.91;;;4.09;73.68
82249;BME280;71851;49.092;18.918;2023-11-18T06:37:41;97360.03;;;4.06;74.06
82249;BME280;71851;49.092;18.918;2023-11-18T06:40:42;97362.34;;;3.90;73.98
82249;BME280;71851;49.092;18.918;2023-11-18T06:43:46;97359.78;;;3.81;75.03
82249;BME280;71851;49.092;18.918;2023-11-18T06:46:56;97361.78;;;3.87;74.60
82249;BME280;71851;49.092;18.918;2023-11-18T06:49:56;97361.13;;;3.85;75.36
82249;BME280;71851;49.092;18.918;2023-11-18T06:52:56;97363.16;;;3.81;75.04
82249;BME280;71851;49.092;18.918;2023-11-18T06:55:57;97368.63;;;3.88;75.08
82249;BME280;71851;49.092;18.918;2023-11-18T06:58:57;97376.81;;;3.83;74.93
82249;BME280;71851;49.092;18.918;2023-11-18T07:01:58;97381.59;;;3.97;74.75
82249;BME280;71851;49.092;18.918;2023-11-18T07:05:01;97378.56;;;4.21;73.51
82249;BME280;71851;49.092;18.918;2023-11-18T07:08:01;97383.31;;;4.35;73.64
82249;BME280;71851;49.092;18.918;2023-11-18T07:11:03;97381.53;;;4.45;72.84
82249;BME280;71851;49.092;18.918;2023-11-18T07:14:04;97377.56;;;4.51;73.12
82249;BME280;71851;49.092;18.918;2023-11-18T07:17:04;97381.28;;;4.85;72.98
82249;BME280;71851;49.092;18.918;2023-11-18T07:20:05;97380.72;;;4.91;71.39
82249;BME280;71851;49.092;18.918;2023-11-18T07:23:06;97380.28;;;4.95;71.00
82249;BME280;71851;49.092;18.918;2023-11-18T07:26:08;97387.38;;;5.03;71.21
82249;BME280;71851;49.092;18.918;2023-11-18T07:29:14;97385.00;;;5.09;70.76
82249;BME280;71851;49.092;18.918;2023-11-18T07:32:14;97387.38;;;5.03;71.07
82249;BME280;71851;49.092;18.918;2023-11-18T07:35:14;97394.34;;;5.30;69.36
82249;BME280;71851;49.092;18.918;2023-11-18T07:38:15;97395.13;;;5.40;70.32
82249;BME280;71851;49.092;18.918;2023-11-18T07:41:16;97386.03;;;5.26;71.06
82249;BME280;71851;49.092;18.918;2023-11-18T07:44:27;97397.53;;;5.24;69.88
82249;BME280;71851;49.092;18.918;2023-11-18T07:47:27;97404.16;;;5.36;69.96
82249;BME280;71851;49.092;18.918;2023-11-18T07:50:28;97390.31;;;5.45;68.32
82249;BME280;71851;49.092;18.918;2023-11-18T07:53:28;97391.44;;;5.60;67.89
82249;BME280;71851;49.092;18.918;2023-11-18T07:56:29;97399.38;;;6.03;66.51
82249;BME280;71851;49.092;18.918;2023-11-18T07:59:39;97396.94;;;6.45;65.31
82249;BME280;71851;49.092;18.918;2023-11-18T08:02:45;97407.00;;;6.40;64.24
82249;BME280;71851;49.092;18.918;2023-11-18T08:05:46;97406.34;;;6.63;63.99
82249;BME280;71851;49.092;18.918;2023-11-18T08:09:02;97407.41;;;7.46;61.87
82249;BME280;71851;49.092;18.918;2023-11-18T08:12:12;97400.41;;;8.28;60.03
82249;BME280;71851;49.092;18.918;2023-11-18T08:15:15;97398.72;;;8.92;56.06
82249;BME280;71851;49.092;18.918;2023-11-18T08:18:16;97393.09;;;9.50;54.74
82249;BME280;71851;49.092;18.918;2023-11-18T08:21:25;97394.66;;;10.20;52.81
82249;BME280;71851;49.092;18.918;2023-11-18T08:24:35;97387.03;;;11.64;48.65
82249;BME280;71851;49.092;18.918;2023-11-18T08:27:37;97395.91;;;10.84;51.02
82249;BME280;71851;49.092;18.918;2023-11-18T08:30:45;97394.28;;;10.46;49.92
82249;BME280;71851;49.092;18.918;2023-11-18T08:33:48;97390.47;;;10.48;51.05
82249;BME280;71851;49.092;18.918;2023-11-18T08:36:52;97394.00;;;10.18;51.43
82249;BME280;71851;49.092;18.918;2023-11-18T08:39:53;97388.78;;;11.57;49.17
82249;BME280;71851;49.092;18.918;2023-11-18T08:43:01;97391.72;;;12.19;45.04
82249;BME280;71851;49.092;18.918;2023-11-18T08:46:07;97394.66;;;12.79;43.49
82249;BME280;71851;49.092;18.918;2023-11-18T08:49:08;97383.56;;;10.99;47.00
82249;BME280;71851;49.092;18.918;2023-11-18T08:52:11;97381.47;;;9.75;50.97
82249;BME280;71851;49.092;18.918;2023-11-18T08:55:16;97375.97;;;8.84;52.92
82249;BME280;71851;49.092;18.918;2023-11-18T08:58:25;97393.81;;;8.16;54.17
82249;BME280;71851;49.092;18.918;2023-11-18T09:01:36;97383.72;;;10.68;50.84
82249;BME280;71851;49.092;18.918;2023-11-18T09:04:36;97396.25;;;11.39;46.10
82249;BME280;71851;49.092;18.918;2023-11-18T09:07:37;97404.75;;;11.41;47.29
82249;BME280;71851;49.092;18.918;2023-11-18T09:10:37;97428.28;;;9.47;52.95
82249;BME280;71851;49.092;18.918;2023-11-18T09:13:39;97421.66;;;8.57;56.06
82249;BME280;71851;49.092;18.918;2023-11-18T09:16:41;97441.34;;;8.04;57.41
82249;BME280;71851;49.092;18.918;2023-11-18T09:19:42;97459.66;;;7.20;59.33
82249;BME280;71851;49.092;18.918;2023-11-18T09:22:43;97446.72;;;6.77;60.93
82249;BME280;71851;49.092;18.918;2023-11-18T09:25:46;97462.47;;;6.75;62.48
82249;BME280;71851;49.092;18.918;2023-11-18T09:28:47;97473.28;;;6.37;63.14
82249;BME280;71851;49.092;18.918;2023-11-18T09:31:50;97478.34;;;6.21;62.32
82249;BME280;71851;49.092;18.918;2023-11-18T09:34:52;97476.63;;;6.12;63.49
82249;BME280;71851;49.092;18.918;2023-11-18T09:37:53;97474.47;;;6.25;64.23
82249;BME280;71851;49.092;18.918;2023-11-18T09:40:54;97482.66;;;6.30;62.21
82249;BME280;71851;49.092;18.918;2023-11-18T09:43:54;97486.22;;;6.64;61.57
82249;BME280;71851;49.092;18.918;2023-11-18T09:46:57;97493.47;;;6.53;62.24
82249;BME280;71851;49.092;18.918;2023-11-18T09:50:08;97484.81;;;6.35;61.60
82249;BME280;71851;49.092;18.918;2023-11-18T09:53:13;97480.47;;;5.90;61.30
82249;BME280;71851;49.092;18.918;2023-11-18T10:00:01;97489.50;;;6.14;61.37
82249;BME280;71851;49.092;18.918;2023-11-18T10:03:16;97500.34;;;5.91;59.43
82249;BME280;71851;49.092;18.918;2023-11-18T10:06:17;97497.22;;;5.88;60.71
82249;BME280;71851;49.092;18.918;2023-11-18T10:09:18;97498.25;;;5.68;59.63
82249;BME280;71851;49.092;18.918;2023-11-18T10:12:28;97508.72;;;5.85;61.03
82249;BME280;71851;49.092;18.918;2023-11-18T10:15:30;97503.94;;;5.81;61.11
82249;BME280;71851;49.092;18.918;2023-11-18T10:18:31;97502.88;;;5.74;60.66
82249;BME280;71851;49.092;18.918;2023-11-18T10:21:36;97494.31;;;5.91;60.05
82249;BME280;71851;49.092;18.918;2023-11-18T10:24:46;97510.13;;;6.42;57.81
82249;BME280;71851;49.092;18.918;2023-11-18T10:27:46;97511.41;;;7.25;55.36
82249;BME280;71851;49.092;18.918;2023-11-18T10:30:47;97509.47;;;7.27;56.23
82249;BME280;71851;49.092;18.918;2023-11-18T10:33:48;97507.31;;;7.56;55.41
82249;BME280;71851;49.092;18.918;2023-11-18T10:36:59;97500.34;;;10.88;46.61
82249;BME280;71851;49.092;18.918;2023-11-18T10:40:05;97510.34;;;10.70;45.02
82249;BME280;71851;49.092;18.918;2023-11-18T10:43:06;97520.34;;;12.64;41.61
82249;BME280;71851;49.092;18.918;2023-11-18T10:46:11;97496.91;;;13.80;39.22
82249;BME280;71851;49.092;18.918;2023-11-18T10:49:15;97513.69;;;14.93;36.14
82249;BME280;71851;49.092;18.918;2023-11-18T10:52:19;97514.34;;;11.84;41.54
82249;BME280;71851;49.092;18.918;2023-11-18T10:55:20;97527.88;;;10.78;44.02
82249;BME280;71851;49.092;18.918;2023-11-18T10:58:20;97524.84;;;12.70;40.99
82249;BME280;71851;49.092;18.918;2023-11-18T11:01:34;97533.75;;;12.69;40.69
82249;BME280;71851;49.092;18.918;2023-11-18T11:04:44;97530.94;;;11.19;44.29
82249;BME280;71851;49.092;18.918;2023-11-18T11:07:49;97534.66;;;10.87;47.08
82249;BME280;71851;49.092;18.918;2023-11-18T11:10:53;97527.97;;;10.62;48.37
82249;BME280;71851;49.092;18.918;2023-11-18T11:14:00;97524.84;;;11.55;46.77
82249;BME280;71851;49.092;18.918;2023-11-18T11:17:07;97529.84;;;12.65;43.57
82249;BME280;71851;49.092;18.918;2023-11-18T11:20:19;97524.34;;;13.24;41.31
82249;BME280;71851;49.092;18.918;2023-11-18T11:23:49;97516.06;;;12.63;42.70
82249;BME280;71851;49.092;18.918;2023-11-18T11:27:23;97542.00;;;11.80;44.71
82249;BME280;71851;49.092;18.918;2023-11-18T11:30:46;97535.31;;;10.66;46.39
82249;BME280;71851;49.092;18.918;2023-11-18T11:33:57;97547.56;;;10.51;49.52
82249;BME280;71851;49.092;18.918;2023-11-18T11:36:59;97549.59;;;10.02;49.14
82249;BME280;71851;49.092;18.918;2023-11-18T11:40:01;97543.53;;;10.10;50.17
82249;BME280;71851;49.092;18.918;2023-11-18T11:43:07;97549.81;;;9.85;50.42
82249;BME280;71851;49.092;18.918;2023-11-18T11:46:12;97555.56;;;9.17;51.02
82249;BME280;71851;49.092;18.918;2023-11-18T11:49:13;97562.25;;;8.72;53.46
82249;BME280;71851;49.092;18.918;2023-11-18T11:52:30;97559.34;;;8.17;55.08
82249;BME280;71851;49.092;18.918;2023-11-18T11:55:47;97566.34;;;8.16;56.12
82249;BME280;71851;49.092;18.918;2023-11-18T11:58:51;97559.47;;;7.73;56.50
82249;BME280;71851;49.092;18.918;2023-11-18T12:01:53;97563.81;;;7.31;57.63
82249;BME280;71851;49.092;18.918;2023-11-18T12:04:55;97567.44;;;7.38;57.78
82249;BME280;71851;49.092;18.918;2023-11-18T12:07:58;97578.66;;;7.31;59.01
82249;BME280;71851;49.092;18.918;2023-11-18T12:10:59;97573.13;;;7.34;59.13
82249;BME280;71851;49.092;18.918;2023-11-18T12:14:01;97579.50;;;7.31;60.43
82249;BME280;71851;49.092;18.918;2023-11-18T12:20:53;97575.34;;;7.21;61.43
82249;BME280;71851;49.092;18.918;2023-11-18T12:24:15;97587.59;;;6.67;61.62
82249;BME280;71851;49.092;18.918;2023-11-18T12:30:38;97586.34;;;6.09;65.53
82249;BME280;71851;49.092;18.918;2023-11-18T12:37:12;97609.88;;;5.90;66.79
82249;BME280;71851;49.092;18.918;2023-11-18T12:46:53;97624.19;;;5.57;66.42
82249;BME280;71851;49.092;18.918;2023-11-18T12:49:54;97620.78;;;5.57;67.03
82249;BME280;71851;49.092;18.918;2023-11-18T12:52:55;97626.81;;;5.57;66.98
82249;BME280;71851;49.092;18.918;2023-11-18T12:56:00;97628.59;;;5.47;67.83
82249;BME280;71851;49.092;18.918;2023-11-18T12:59:02;97650.06;;;5.68;67.75
82249;BME280;71851;49.092;18.918;2023-11-18T13:02:07;97642.53;;;5.75;65.95
82249;BME280;71851;49.092;18.918;2023-11-18T13:05:08;97640.06;;;5.64;65.87
82249;BME280;71851;49.092;18.918;2023-11-18T13:08:14;97648.31;;;5.69;65.49
82249;BME280;71851;49.092;18.918;2023-11-18T13:11:15;97657.06;;;5.68;66.18
82249;BME280;71851;49.092;18.918;2023-11-18T13:14:16;97651.47;;;5.63;64.78
82249;BME280;71851;49.092;18.918;2023-11-18T13:17:18;97652.50;;;5.79;64.61
82249;BME280;71851;49.092;18.918;2023-11-18T13:20:18;97640.31;;;5.80;65.32
82249;BME280;71851;49.092;18.918;2023-11-18T13:23:27;97649.47;;;5.93;64.20
82249;BME280;71851;49.092;18.918;2023-11-18T13:26:31;97657.19;;;5.76;63.73
82249;BME280;71851;49.092;18.918;2023-11-18T13:29:35;97655.66;;;5.73;64.75
82249;BME280;71851;49.092;18.918;2023-11-18T13:32:36;97671.28;;;5.73;65.34
82249;BME280;71851;49.092;18.918;2023-11-18T13:35:36;97656.13;;;5.50;64.15
82249;BME280;71851;49.092;18.918;2023-11-18T13:38:37;97667.38;;;5.31;63.47
82249;BME280;71851;49.092;18.918;2023-11-18T13:41:37;97668.91;;;5.34;65.20
82249;BME280;71851;49.092;18.918;2023-11-18T13:44:38;97668.50;;;5.09;64.27
82249;BME280;71851;49.092;18.918;2023-11-18T13:47:39;97670.31;;;5.18;64.02
82249;BME280;71851;49.092;18.918;2023-11-18T13:50:41;97676.19;;;5.30;64.82
82249;BME280;71851;49.092;18.918;2023-11-18T13:53:43;97683.44;;;5.27;65.09
82249;BME280;71851;49.092;18.918;2023-11-18T13:56:44;97687.69;;;4.99;64.25
82249;BME280;71851;49.092;18.918;2023-11-18T13:59:45;97685.91;;;5.18;64.43
82249;BME280;71851;49.092;18.918;2023-11-18T14:02:47;97690.00;;;5.21;63.74
82249;BME280;71851;49.092;18.918;2023-11-18T14:05:51;97677.56;;;5.15;64.75
82249;BME280;71851;49.092;18.918;2023-11-18T14:08:52;97673.03;;;4.88;65.27
82249;BME280;71851;49.092;18.918;2023-11-18T14:11:53;97677.25;;;4.80;65.68
82249;BME280;71851;49.092;18.918;2023-11-18T14:14:58;97673.53;;;4.63;65.25
82249;BME280;71851;49.092;18.918;2023-11-18T14:17:58;97681.75;;;4.59;66.05
82249;BME280;71851;49.092;18.918;2023-11-18T14:20:59;97680.63;;;4.52;67.06
82249;BME280;71851;49.092;18.918;2023-11-18T14:24:01;97692.47;;;4.94;66.95
82249;BME280;71851;49.092;18.918;2023-11-18T14:27:03;97694.38;;;4.73;67.08
82249;BME280;71851;49.092;18.918;2023-11-18T14:30:05;97695.88;;;4.85;67.91
82249;BME280;71851;49.092;18.918;2023-11-18T14:33:08;97693.69;;;4.80;67.49
82249;BME280;71851;49.092;18.918;2023-11-18T14:36:09;97697.59;;;4.65;66.62
82249;BME280;71851;49.092;18.918;2023-11-18T14:39:09;97712.50;;;4.63;65.88
82249;BME280;71851;49.092;18.918;2023-11-18T14:42:10;97723.06;;;4.62;66.35
82249;BME280;71851;49.092;18.918;2023-11-18T14:45:13;97733.69;;;4.49;66.13
82249;BME280;71851;49.092;18.918;2023-11-18T14:48:16;97727.53;;;4.50;66.22
82249;BME280;71851;49.092;18.918;2023-11-18T14:51:20;97743.97;;;4.51;65.85
82249;BME280;71851;49.092;18.918;2023-11-18T14:54:21;97757.81;;;4.61;66.30
82249;BME280;71851;49.092;18.918;2023-11-18T14:57:24;97756.25;;;4.49;65.07
82249;BME280;71851;49.092;18.918;2023-11-18T15:00:27;97756.97;;;4.51;65.05
82249;BME280;71851;49.092;18.918;2023-11-18T15:03:33;97750.38;;;4.47;65.16
82249;BME280;71851;49.092;18.918;2023-11-18T15:06:37;97767.22;;;4.52;65.07
82249;BME280;71851;49.092;18.918;2023-11-18T15:09:38;97764.97;;;4.38;63.99
82249;BME280;71851;49.092;18.918;2023-11-18T15:12:42;97771.72;;;4.50;64.93
82249;BME280;71851;49.092;18.918;2023-11-18T15:15:44;97766.38;;;4.52;64.21
82249;BME280;71851;49.092;18.918;2023-11-18T15:18:48;97776.94;;;4.60;64.69
82249;BME280;71851;49.092;18.918;2023-11-18T15:21:53;97770.84;;;4.70;64.97
82249;BME280;71851;49.092;18.918;2023-11-18T15:24:54;97782.13;;;4.60;63.64
82249;BME280;71851;49.092;18.918;2023-11-18T15:27:59;97790.59;;;4.52;63.87
82249;BME280;71851;49.092;18.918;2023-11-18T15:31:00;97798.19;;;4.65;64.07
82249;BME280;71851;49.092;18.918;2023-11-18T15:34:03;97802.69;;;4.63;64.42
82249;BME280;71851;49.092;18.918;2023-11-18T15:37:03;97807.38;;;4.69;64.27
82249;BME280;71851;49.092;18.918;2023-11-18T15:40:14;97804.53;;;4.51;63.88
82249;BME280;71851;49.092;18.918;2023-11-18T15:43:19;97807.13;;;4.51;62.48
82249;BME280;71851;49.092;18.918;2023-11-18T15:46:20;97811.59;;;4.70;63.40
82249;BME280;71851;49.092;18.918;2023-11-18T15:49:20;97803.06;;;4.58;63.63
82249;BME280;71851;49.092;18.918;2023-11-18T15:52:21;97808.69;;;4.63;64.13
82249;BME280;71851;49.092;18.918;2023-11-18T15:55:22;97811.78;;;4.48;64.14
82249;BME280;71851;49.092;18.918;2023-11-18T15:58:24;97799.41;;;4.61;62.59
82249;BME280;71851;49.092;18.918;2023-11-18T16:01:26;97800.47;;;4.58;61.57
82249;BME280;71851;49.092;18.918;2023-11-18T16:04:27;97806.59;;;4.57;62.79
82249;BME280;71851;49.092;18.918;2023-11-18T16:07:28;97806.56;;;4.48;62.07
82249;BME280;71851;49.092;18.918;2023-11-18T16:10:28;97808.84;;;4.41;61.88
82249;BME280;71851;49.092;18.918;2023-11-18T16:13:30;97818.34;;;4.52;62.99
82249;BME280;71851;49.092;18.918;2023-11-18T16:16:31;97814.81;;;4.53;61.96
82249;BME280;71851;49.092;18.918;2023-11-18T16:19:33;97809.19;;;4.27;61.12
82249;BME280;71851;49.092;18.918;2023-11-18T16:22:34;97811.03;;;4.36;62.03
82249;BME280;71851;49.092;18.918;2023-11-18T16:25:34;97806.59;;;4.27;61.29
82249;BME280;71851;49.092;18.918;2023-11-18T16:28:35;97791.13;;;4.46;62.27
82249;BME280;71851;49.092;18.918;2023-11-18T16:31:37;97807.88;;;4.32;63.39